sensor_id;sensor_type;location;lat;lon;timestamp;temperature;humidity
16521;DHT22;8373;48.110;11.522;2023-05-07T00:01:48;17.20;77.60
16521;DHT22;8373;48.110;11.522;2023-05-07T00:04:15;17.20;77.80
16521;DHT22;8373;48.110;11.522;2023-05-07T00:06:42;17.20;77.90
16521;DHT22;8373;48.110;11.522;2023-05-07T00:09:10;17.20;77.60
16521;DHT22;8373;48.110;11.522;2023-05-07T00:11:37;17.20;77.50
16521;DHT22;8373;48.110;11.522;2023-05-07T00:14:04;17.20;77.70
16521;DHT22;8373;48.110;11.522;2023-05-07T00:16:32;17.20;77.90
16521;DHT22;8373;48.110;11.522;2023-05-07T00:18:59;17.20;77.80
16521;DHT22;8373;48.110;11.522;2023-05-07T00:21:26;17.20;78.10
16521;DHT22;8373;48.110;11.522;2023-05-07T00:23:53;17.20;78.20
16521;DHT22;8373;48.110;11.522;2023-05-07T00:26:20;17.10;78.10
16521;DHT22;8373;48.110;11.522;2023-05-07T00:28:47;17.10;78.00
16521;DHT22;8373;48.110;11.522;2023-05-07T00:31:14;17.10;78.30
16521;DHT22;8373;48.110;11.522;2023-05-07T00:33:42;17.10;78.30
16521;DHT22;8373;48.110;11.522;2023-05-07T00:36:09;17.10;78.30
16521;DHT22;8373;48.110;11.522;2023-05-07T00:38:36;17.10;78.30
16521;DHT22;8373;48.110;11.522;2023-05-07T00:41:03;17.10;78.50
16521;DHT22;8373;48.110;11.522;2023-05-07T00:43:30;17.10;78.80
16521;DHT22;8373;48.110;11.522;2023-05-07T00:45:57;17.10;78.90
16521;DHT22;8373;48.110;11.522;2023-05-07T00:48:25;17.10;78.90
16521;DHT22;8373;48.110;11.522;2023-05-07T00:50:54;17.10;79.20
16521;DHT22;8373;48.110;11.522;2023-05-07T00:53:21;17.00;79.00
16521;DHT22;8373;48.110;11.522;2023-05-07T00:55:48;17.00;79.30
16521;DHT22;8373;48.110;11.522;2023-05-07T00:58:16;17.10;79.10
16521;DHT22;8373;48.110;11.522;2023-05-07T01:00:43;17.00;78.80
16521;DHT22;8373;48.110;11.522;2023-05-07T01:03:09;17.00;79.10
16521;DHT22;8373;48.110;11.522;2023-05-07T01:05:37;16.90;79.20
16521;DHT22;8373;48.110;11.522;2023-05-07T01:08:05;16.90;79.50
16521;DHT22;8373;48.110;11.522;2023-05-07T01:10:32;16.90;79.90
16521;DHT22;8373;48.110;11.522;2023-05-07T01:12:59;16.90;79.90
16521;DHT22;8373;48.110;11.522;2023-05-07T01:15:27;16.90;79.60
16521;DHT22;8373;48.110;11.522;2023-05-07T01:17:54;16.80;79.80
16521;DHT22;8373;48.110;11.522;2023-05-07T01:20:23;16.80;80.00
16521;DHT22;8373;48.110;11.522;2023-05-07T01:22:52;16.70;80.20
16521;DHT22;8373;48.110;11.522;2023-05-07T01:25:20;16.80;80.40
16521;DHT22;8373;48.110;11.522;2023-05-07T01:27:47;16.80;80.50
16521;DHT22;8373;48.110;11.522;2023-05-07T01:30:14;16.80;80.40
16521;DHT22;8373;48.110;11.522;2023-05-07T01:32:43;16.80;80.10
16521;DHT22;8373;48.110;11.522;2023-05-07T01:35:17;16.70;79.90
16521;DHT22;8373;48.110;11.522;2023-05-07T01:37:46;16.70;80.10
16521;DHT22;8373;48.110;11.522;2023-05-07T01:40:14;16.70;80.30
16521;DHT22;8373;48.110;11.522;2023-05-07T01:42:42;16.60;80.40
16521;DHT22;8373;48.110;11.522;2023-05-07T01:45:10;16.70;80.40
16521;DHT22;8373;48.110;11.522;2023-05-07T01:47:38;16.60;80.20
16521;DHT22;8373;48.110;11.522;2023-05-07T01:50:07;16.60;80.50
16521;DHT22;8373;48.110;11.522;2023-05-07T01:52:36;16.50;80.10
16521;DHT22;8373;48.110;11.522;2023-05-07T01:55:05;16.50;80.10
16521;DHT22;8373;48.110;11.522;2023-05-07T01:57:33;16.40;80.50
16521;DHT22;8373;48.110;11.522;2023-05-07T02:00:01;16.40;80.70
16521;DHT22;8373;48.110;11.522;2023-05-07T02:02:31;16.40;80.60
16521;DHT22;8373;48.110;11.522;2023-05-07T02:04:59;16.50;80.70
16521;DHT22;8373;48.110;11.522;2023-05-07T02:07:26;16.40;80.60
16521;DHT22;8373;48.110;11.522;2023-05-07T02:09:53;16.40;80.70
16521;DHT22;8373;48.110;11.522;2023-05-07T02:12:21;16.30;80.90
16521;DHT22;8373;48.110;11.522;2023-05-07T02:14:50;16.30;80.90
16521;DHT22;8373;48.110;11.522;2023-05-07T02:17:17;16.30;80.90
16521;DHT22;8373;48.110;11.522;2023-05-07T02:19:44;16.30;81.30
16521;DHT22;8373;48.110;11.522;2023-05-07T02:22:11;16.20;81.40
16521;DHT22;8373;48.110;11.522;2023-05-07T02:24:38;16.20;81.40
16521;DHT22;8373;48.110;11.522;2023-05-07T02:27:05;16.20;81.60
16521;DHT22;8373;48.110;11.522;2023-05-07T02:29:32;16.20;81.60
16521;DHT22;8373;48.110;11.522;2023-05-07T02:32:00;16.20;81.60
16521;DHT22;8373;48.110;11.522;2023-05-07T02:34:27;16.20;81.60
16521;DHT22;8373;48.110;11.522;2023-05-07T02:36:54;16.10;81.60
16521;DHT22;8373;48.110;11.522;2023-05-07T02:39:21;16.10;81.90
16521;DHT22;8373;48.110;11.522;2023-05-07T02:41:48;16.10;81.90
16521;DHT22;8373;48.110;11.522;2023-05-07T02:44:15;16.10;81.90
16521;DHT22;8373;48.110;11.522;2023-05-07T02:46:42;16.10;82.10
16521;DHT22;8373;48.110;11.522;2023-05-07T02:49:10;16.00;82.30
16521;DHT22;8373;48.110;11.522;2023-05-07T02:51:37;16.00;81.90
16521;DHT22;8373;48.110;11.522;2023-05-07T02:54:05;16.10;82.10
16521;DHT22;8373;48.110;11.522;2023-05-07T02:56:32;16.00;81.80
16521;DHT22;8373;48.110;11.522;2023-05-07T02:58:59;15.90;81.90
16521;DHT22;8373;48.110;11.522;2023-05-07T03:01:26;15.90;82.10
16521;DHT22;8373;48.110;11.522;2023-05-07T03:03:53;15.90;82.10
16521;DHT22;8373;48.110;11.522;2023-05-07T03:06:22;15.90;82.30
16521;DHT22;8373;48.110;11.522;2023-05-07T03:08:49;15.90;82.50
16521;DHT22;8373;48.110;11.522;2023-05-07T03:11:16;15.90;82.90
16521;DHT22;8373;48.110;11.522;2023-05-07T03:13:43;15.90;82.70
16521;DHT22;8373;48.110;11.522;2023-05-07T03:16:10;15.90;82.40
16521;DHT22;8373;48.110;11.522;2023-05-07T03:18:37;15.90;82.70
16521;DHT22;8373;48.110;11.522;2023-05-07T03:21:04;15.90;83.10
16521;DHT22;8373;48.110;11.522;2023-05-07T03:23:32;15.90;83.00
16521;DHT22;8373;48.110;11.522;2023-05-07T03:25:59;15.90;83.00
16521;DHT22;8373;48.110;11.522;2023-05-07T03:28:26;15.90;82.60
16521;DHT22;8373;48.110;11.522;2023-05-07T03:30:53;15.90;82.70
16521;DHT22;8373;48.110;11.522;2023-05-07T03:33:20;15.90;82.80
16521;DHT22;8373;48.110;11.522;2023-05-07T03:35:47;15.80;83.50
16521;DHT22;8373;48.110;11.522;2023-05-07T03:38:14;15.80;82.90
16521;DHT22;8373;48.110;11.522;2023-05-07T03:40:42;15.80;83.10
16521;DHT22;8373;48.110;11.522;2023-05-07T03:43:09;15.70;83.00
16521;DHT22;8373;48.110;11.522;2023-05-07T03:45:36;15.80;83.60
16521;DHT22;8373;48.110;11.522;2023-05-07T03:48:04;15.80;84.30
16521;DHT22;8373;48.110;11.522;2023-05-07T03:50:31;15.90;84.20
16521;DHT22;8373;48.110;11.522;2023-05-07T03:52:58;16.00;84.20
16521;DHT22;8373;48.110;11.522;2023-05-07T03:55:25;15.90;83.60
16521;DHT22;8373;48.110;11.522;2023-05-07T03:57:53;15.90;82.80
16521;DHT22;8373;48.110;11.522;2023-05-07T04:00:22;15.90;82.60
16521;DHT22;8373;48.110;11.522;2023-05-07T04:02:49;15.90;82.30
16521;DHT22;8373;48.110;11.522;2023-05-07T04:05:16;15.80;82.70
16521;DHT22;8373;48.110;11.522;2023-05-07T04:07:43;15.90;82.60
16521;DHT22;8373;48.110;11.522;2023-05-07T04:10:13;15.70;81.90
16521;DHT22;8373;48.110;11.522;2023-05-07T04:12:40;15.70;82.40
16521;DHT22;8373;48.110;11.522;2023-05-07T04:15:10;15.70;82.80
16521;DHT22;8373;48.110;11.522;2023-05-07T04:17:37;15.80;83.20
16521;DHT22;8373;48.110;11.522;2023-05-07T04:20:05;15.80;83.40
16521;DHT22;8373;48.110;11.522;2023-05-07T04:22:32;15.80;82.60
16521;DHT22;8373;48.110;11.522;2023-05-07T04:25:00;15.80;82.50
16521;DHT22;8373;48.110;11.522;2023-05-07T04:27:27;15.80;82.30
16521;DHT22;8373;48.110;11.522;2023-05-07T04:29:54;15.80;82.30
16521;DHT22;8373;48.110;11.522;2023-05-07T04:32:23;15.90;82.40
16521;DHT22;8373;48.110;11.522;2023-05-07T04:34:51;15.90;82.00
16521;DHT22;8373;48.110;11.522;2023-05-07T04:37:18;15.90;81.70
16521;DHT22;8373;48.110;11.522;2023-05-07T04:39:45;15.90;82.10
16521;DHT22;8373;48.110;11.522;2023-05-07T04:42:14;16.00;82.60
16521;DHT22;8373;48.110;11.522;2023-05-07T04:44:41;16.00;82.70
16521;DHT22;8373;48.110;11.522;2023-05-07T04:47:08;16.10;82.40
16521;DHT22;8373;48.110;11.522;2023-05-07T04:49:37;16.00;82.00
16521;DHT22;8373;48.110;11.522;2023-05-07T04:52:05;16.00;81.90
16521;DHT22;8373;48.110;11.522;2023-05-07T04:54:32;16.00;81.90
16521;DHT22;8373;48.110;11.522;2023-05-07T04:56:59;16.00;81.90
16521;DHT22;8373;48.110;11.522;2023-05-07T04:59:26;16.00;82.20
16521;DHT22;8373;48.110;11.522;2023-05-07T05:01:53;16.00;81.70
16521;DHT22;8373;48.110;11.522;2023-05-07T05:04:20;16.00;81.60
16521;DHT22;8373;48.110;11.522;2023-05-07T05:06:48;16.00;81.90
16521;DHT22;8373;48.110;11.522;2023-05-07T05:09:15;16.00;82.00
16521;DHT22;8373;48.110;11.522;2023-05-07T05:11:43;16.10;82.10
16521;DHT22;8373;48.110;11.522;2023-05-07T05:14:10;16.10;81.90
16521;DHT22;8373;48.110;11.522;2023-05-07T05:16:37;16.10;81.70
16521;DHT22;8373;48.110;11.522;2023-05-07T05:19:04;16.10;81.70
16521;DHT22;8373;48.110;11.522;2023-05-07T05:21:31;16.10;81.40
16521;DHT22;8373;48.110;11.522;2023-05-07T05:23:59;16.10;81.70
16521;DHT22;8373;48.110;11.522;2023-05-07T05:26:26;16.10;82.00
16521;DHT22;8373;48.110;11.522;2023-05-07T05:28:53;16.10;81.90
16521;DHT22;8373;48.110;11.522;2023-05-07T05:31:20;16.10;82.10
16521;DHT22;8373;48.110;11.522;2023-05-07T05:33:47;16.20;82.70
16521;DHT22;8373;48.110;11.522;2023-05-07T05:36:15;16.20;82.60
16521;DHT22;8373;48.110;11.522;2023-05-07T05:38:42;16.20;82.50
16521;DHT22;8373;48.110;11.522;2023-05-07T05:41:11;16.30;82.80
16521;DHT22;8373;48.110;11.522;2023-05-07T05:43:38;16.30;83.00
16521;DHT22;8373;48.110;11.522;2023-05-07T05:46:05;16.30;83.30
16521;DHT22;8373;48.110;11.522;2023-05-07T05:48:33;16.40;83.30
16521;DHT22;8373;48.110;11.522;2023-05-07T05:51:00;16.40;83.30
16521;DHT22;8373;48.110;11.522;2023-05-07T05:53:27;16.50;83.40
16521;DHT22;8373;48.110;11.522;2023-05-07T05:55:54;16.70;83.40
16521;DHT22;8373;48.110;11.522;2023-05-07T05:58:23;16.80;83.20
16521;DHT22;8373;48.110;11.522;2023-05-07T06:00:50;17.00;82.70
16521;DHT22;8373;48.110;11.522;2023-05-07T06:03:18;17.10;82.50
16521;DHT22;8373;48.110;11.522;2023-05-07T06:05:46;17.20;81.90
16521;DHT22;8373;48.110;11.522;2023-05-07T06:08:13;17.40;81.70
16521;DHT22;8373;48.110;11.522;2023-05-07T06:10:40;17.50;81.00
16521;DHT22;8373;48.110;11.522;2023-05-07T06:13:07;17.60;80.70
16521;DHT22;8373;48.110;11.522;2023-05-07T06:15:36;17.70;80.20
16521;DHT22;8373;48.110;11.522;2023-05-07T06:18:03;17.70;79.90
16521;DHT22;8373;48.110;11.522;2023-05-07T06:20:30;17.80;79.60
16521;DHT22;8373;48.110;11.522;2023-05-07T06:22:57;17.80;80.10
16521;DHT22;8373;48.110;11.522;2023-05-07T06:25:24;17.80;79.30
16521;DHT22;8373;48.110;11.522;2023-05-07T06:27:51;17.90;79.40
16521;DHT22;8373;48.110;11.522;2023-05-07T06:30:19;17.90;79.40
16521;DHT22;8373;48.110;11.522;2023-05-07T06:32:47;18.00;79.30
16521;DHT22;8373;48.110;11.522;2023-05-07T06:35:14;18.00;79.10
16521;DHT22;8373;48.110;11.522;2023-05-07T06:37:41;18.00;78.80
16521;DHT22;8373;48.110;11.522;2023-05-07T06:40:10;18.10;78.50
16521;DHT22;8373;48.110;11.522;2023-05-07T06:42:37;18.20;79.00
16521;DHT22;8373;48.110;11.522;2023-05-07T06:45:05;18.20;78.20
16521;DHT22;8373;48.110;11.522;2023-05-07T06:47:32;18.30;78.30
16521;DHT22;8373;48.110;11.522;2023-05-07T06:50:01;18.40;77.60
16521;DHT22;8373;48.110;11.522;2023-05-07T06:52:28;18.40;77.40
16521;DHT22;8373;48.110;11.522;2023-05-07T06:54:55;18.60;77.00
16521;DHT22;8373;48.110;11.522;2023-05-07T06:57:22;18.70;76.30
16521;DHT22;8373;48.110;11.522;2023-05-07T06:59:49;18.80;76.00
16521;DHT22;8373;48.110;11.522;2023-05-07T07:02:16;19.00;75.60
16521;DHT22;8373;48.110;11.522;2023-05-07T07:04:42;19.10;75.00
16521;DHT22;8373;48.110;11.522;2023-05-07T07:07:12;19.20;75.30
16521;DHT22;8373;48.110;11.522;2023-05-07T07:09:38;19.30;75.40
16521;DHT22;8373;48.110;11.522;2023-05-07T07:12:06;19.50;74.80
16521;DHT22;8373;48.110;11.522;2023-05-07T07:14:33;19.70;74.30
16521;DHT22;8373;48.110;11.522;2023-05-07T07:17:00;19.90;73.60
16521;DHT22;8373;48.110;11.522;2023-05-07T07:19:27;20.10;72.60
16521;DHT22;8373;48.110;11.522;2023-05-07T07:21:54;20.20;72.30
16521;DHT22;8373;48.110;11.522;2023-05-07T07:24:22;20.40;71.40
16521;DHT22;8373;48.110;11.522;2023-05-07T07:26:49;20.50;69.70
16521;DHT22;8373;48.110;11.522;2023-05-07T07:29:16;20.60;68.50
16521;DHT22;8373;48.110;11.522;2023-05-07T07:31:44;20.70;67.60
16521;DHT22;8373;48.110;11.522;2023-05-07T07:34:11;20.80;67.30
16521;DHT22;8373;48.110;11.522;2023-05-07T07:36:38;20.90;67.30
16521;DHT22;8373;48.110;11.522;2023-05-07T07:39:05;21.00;66.10
16521;DHT22;8373;48.110;11.522;2023-05-07T07:41:33;21.10;66.40
16521;DHT22;8373;48.110;11.522;2023-05-07T07:44:00;21.30;65.40
16521;DHT22;8373;48.110;11.522;2023-05-07T07:46:29;21.40;64.80
16521;DHT22;8373;48.110;11.522;2023-05-07T07:48:56;21.50;64.60
16521;DHT22;8373;48.110;11.522;2023-05-07T07:51:24;21.60;64.30
16521;DHT22;8373;48.110;11.522;2023-05-07T07:53:52;21.80;64.70
16521;DHT22;8373;48.110;11.522;2023-05-07T07:56:19;22.00;64.20
16521;DHT22;8373;48.110;11.522;2023-05-07T07:58:47;22.20;64.00
16521;DHT22;8373;48.110;11.522;2023-05-07T08:01:14;22.40;63.30
16521;DHT22;8373;48.110;11.522;2023-05-07T08:03:42;22.50;63.60
16521;DHT22;8373;48.110;11.522;2023-05-07T08:06:09;22.70;62.50
16521;DHT22;8373;48.110;11.522;2023-05-07T08:08:36;22.90;62.10
16521;DHT22;8373;48.110;11.522;2023-05-07T08:11:03;23.10;61.30
16521;DHT22;8373;48.110;11.522;2023-05-07T08:13:30;23.20;61.30
16521;DHT22;8373;48.110;11.522;2023-05-07T08:15:59;23.30;60.50
16521;DHT22;8373;48.110;11.522;2023-05-07T08:18:26;23.40;59.20
16521;DHT22;8373;48.110;11.522;2023-05-07T08:20:54;23.50;59.00
16521;DHT22;8373;48.110;11.522;2023-05-07T08:23:21;23.60;58.80
16521;DHT22;8373;48.110;11.522;2023-05-07T08:25:49;23.70;57.90
16521;DHT22;8373;48.110;11.522;2023-05-07T08:28:16;23.70;57.20
16521;DHT22;8373;48.110;11.522;2023-05-07T08:30:45;23.70;56.10
16521;DHT22;8373;48.110;11.522;2023-05-07T08:33:13;23.70;56.70
16521;DHT22;8373;48.110;11.522;2023-05-07T08:35:40;23.60;57.00
16521;DHT22;8373;48.110;11.522;2023-05-07T08:38:07;23.60;58.10
16521;DHT22;8373;48.110;11.522;2023-05-07T08:40:37;23.70;58.50
16521;DHT22;8373;48.110;11.522;2023-05-07T08:43:06;23.70;58.50
16521;DHT22;8373;48.110;11.522;2023-05-07T08:45:34;23.60;58.70
16521;DHT22;8373;48.110;11.522;2023-05-07T08:48:03;23.60;58.80
16521;DHT22;8373;48.110;11.522;2023-05-07T08:50:35;23.70;58.40
16521;DHT22;8373;48.110;11.522;2023-05-07T08:53:03;23.70;57.00
16521;DHT22;8373;48.110;11.522;2023-05-07T08:55:30;23.70;55.50
16521;DHT22;8373;48.110;11.522;2023-05-07T08:57:57;23.70;57.50
16521;DHT22;8373;48.110;11.522;2023-05-07T09:00:24;23.70;56.90
16521;DHT22;8373;48.110;11.522;2023-05-07T09:02:52;23.70;56.60
16521;DHT22;8373;48.110;11.522;2023-05-07T09:05:19;23.70;57.20
16521;DHT22;8373;48.110;11.522;2023-05-07T09:07:48;23.60;57.00
16521;DHT22;8373;48.110;11.522;2023-05-07T09:10:16;23.60;56.80
16521;DHT22;8373;48.110;11.522;2023-05-07T09:12:43;23.70;55.90
16521;DHT22;8373;48.110;11.522;2023-05-07T09:15:10;23.80;55.50
16521;DHT22;8373;48.110;11.522;2023-05-07T09:17:37;23.90;56.30
16521;DHT22;8373;48.110;11.522;2023-05-07T09:20:07;24.00;59.00
16521;DHT22;8373;48.110;11.522;2023-05-07T09:22:36;24.10;58.30
16521;DHT22;8373;48.110;11.522;2023-05-07T09:25:05;24.10;57.00
16521;DHT22;8373;48.110;11.522;2023-05-07T09:27:32;24.00;56.40
16521;DHT22;8373;48.110;11.522;2023-05-07T09:30:03;24.00;54.80
16521;DHT22;8373;48.110;11.522;2023-05-07T09:32:34;24.00;53.60
16521;DHT22;8373;48.110;11.522;2023-05-07T09:35:01;24.00;54.80
16521;DHT22;8373;48.110;11.522;2023-05-07T09:37:30;24.00;55.30
16521;DHT22;8373;48.110;11.522;2023-05-07T09:39:58;24.00;55.70
16521;DHT22;8373;48.110;11.522;2023-05-07T09:42:27;24.10;55.00
16521;DHT22;8373;48.110;11.522;2023-05-07T09:44:54;24.20;53.50
16521;DHT22;8373;48.110;11.522;2023-05-07T09:47:23;24.20;53.60
16521;DHT22;8373;48.110;11.522;2023-05-07T09:49:56;24.20;52.90
16521;DHT22;8373;48.110;11.522;2023-05-07T09:52:24;24.20;52.90
16521;DHT22;8373;48.110;11.522;2023-05-07T09:54:55;24.20;53.60
16521;DHT22;8373;48.110;11.522;2023-05-07T09:57:27;24.10;53.60
16521;DHT22;8373;48.110;11.522;2023-05-07T09:59:57;24.20;54.00
16521;DHT22;8373;48.110;11.522;2023-05-07T10:02:28;24.20;53.60
16521;DHT22;8373;48.110;11.522;2023-05-07T10:04:57;24.30;53.50
16521;DHT22;8373;48.110;11.522;2023-05-07T10:07:27;24.40;53.70
16521;DHT22;8373;48.110;11.522;2023-05-07T10:09:55;24.40;53.00
16521;DHT22;8373;48.110;11.522;2023-05-07T10:12:27;24.30;53.00
16521;DHT22;8373;48.110;11.522;2023-05-07T10:14:56;24.20;53.00
16521;DHT22;8373;48.110;11.522;2023-05-07T10:17:24;24.20;52.60
16521;DHT22;8373;48.110;11.522;2023-05-07T10:19:53;24.10;53.50
16521;DHT22;8373;48.110;11.522;2023-05-07T10:22:22;24.20;53.00
16521;DHT22;8373;48.110;11.522;2023-05-07T10:24:52;24.20;52.30
16521;DHT22;8373;48.110;11.522;2023-05-07T10:27:22;24.20;52.30
16521;DHT22;8373;48.110;11.522;2023-05-07T10:29:58;24.10;52.30
16521;DHT22;8373;48.110;11.522;2023-05-07T10:32:37;24.10;51.90
16521;DHT22;8373;48.110;11.522;2023-05-07T10:35:10;24.10;52.20
16521;DHT22;8373;48.110;11.522;2023-05-07T10:37:41;24.20;51.80
16521;DHT22;8373;48.110;11.522;2023-05-07T10:40:12;24.10;52.20
16521;DHT22;8373;48.110;11.522;2023-05-07T10:42:53;24.20;51.90
16521;DHT22;8373;48.110;11.522;2023-05-07T10:45:24;24.20;51.90
16521;DHT22;8373;48.110;11.522;2023-05-07T10:48:12;24.20;52.00
16521;DHT22;8373;48.110;11.522;2023-05-07T10:50:41;24.20;51.80
16521;DHT22;8373;48.110;11.522;2023-05-07T10:53:25;24.20;52.10
16521;DHT22;8373;48.110;11.522;2023-05-07T10:56:25;24.40;51.80
16521;DHT22;8373;48.110;11.522;2023-05-07T10:58:53;24.50;51.80
16521;DHT22;8373;48.110;11.522;2023-05-07T11:04:23;24.50;50.30
16521;DHT22;8373;48.110;11.522;2023-05-07T11:09:58;24.40;50.30
16521;DHT22;8373;48.110;11.522;2023-05-07T11:12:54;24.50;51.20
16521;DHT22;8373;48.110;11.522;2023-05-07T11:15:40;24.50;50.50
16521;DHT22;8373;48.110;11.522;2023-05-07T11:18:13;24.60;49.40
16521;DHT22;8373;48.110;11.522;2023-05-07T11:21:01;24.60;50.90
16521;DHT22;8373;48.110;11.522;2023-05-07T11:26:46;24.80;50.00
16521;DHT22;8373;48.110;11.522;2023-05-07T11:29:16;24.90;49.60
16521;DHT22;8373;48.110;11.522;2023-05-07T11:31:49;25.00;49.40
16521;DHT22;8373;48.110;11.522;2023-05-07T11:34:21;24.90;49.50
16521;DHT22;8373;48.110;11.522;2023-05-07T11:36:51;24.90;50.60
16521;DHT22;8373;48.110;11.522;2023-05-07T11:39:30;24.90;50.00
16521;DHT22;8373;48.110;11.522;2023-05-07T11:41:59;24.90;51.00
16521;DHT22;8373;48.110;11.522;2023-05-07T11:44:44;24.80;50.60
16521;DHT22;8373;48.110;11.522;2023-05-07T11:47:18;24.70;51.30
16521;DHT22;8373;48.110;11.522;2023-05-07T11:49:47;24.70;51.40
16521;DHT22;8373;48.110;11.522;2023-05-07T11:52:18;24.80;52.00
16521;DHT22;8373;48.110;11.522;2023-05-07T11:54:49;24.80;51.10
16521;DHT22;8373;48.110;11.522;2023-05-07T11:57:17;25.00;51.80
16521;DHT22;8373;48.110;11.522;2023-05-07T11:59:44;25.00;51.90
16521;DHT22;8373;48.110;11.522;2023-05-07T12:02:14;25.10;51.40
16521;DHT22;8373;48.110;11.522;2023-05-07T12:04:41;25.30;51.30
16521;DHT22;8373;48.110;11.522;2023-05-07T12:07:11;25.40;50.00
16521;DHT22;8373;48.110;11.522;2023-05-07T12:09:41;25.40;50.70
16521;DHT22;8373;48.110;11.522;2023-05-07T12:12:09;25.50;50.50
16521;DHT22;8373;48.110;11.522;2023-05-07T12:14:39;25.50;50.20
16521;DHT22;8373;48.110;11.522;2023-05-07T12:17:08;25.70;50.70
16521;DHT22;8373;48.110;11.522;2023-05-07T12:19:36;26.00;50.20
16521;DHT22;8373;48.110;11.522;2023-05-07T12:22:05;26.30;49.60
16521;DHT22;8373;48.110;11.522;2023-05-07T12:24:45;26.50;48.80
16521;DHT22;8373;48.110;11.522;2023-05-07T12:27:13;26.70;48.20
16521;DHT22;8373;48.110;11.522;2023-05-07T12:29:44;26.90;48.20
16521;DHT22;8373;48.110;11.522;2023-05-07T12:32:14;26.90;47.50
16521;DHT22;8373;48.110;11.522;2023-05-07T12:34:42;26.80;47.00
16521;DHT22;8373;48.110;11.522;2023-05-07T12:37:13;26.50;47.40
16521;DHT22;8373;48.110;11.522;2023-05-07T12:39:48;26.40;48.00
16521;DHT22;8373;48.110;11.522;2023-05-07T12:42:19;26.20;48.20
16521;DHT22;8373;48.110;11.522;2023-05-07T12:44:50;26.20;47.80
16521;DHT22;8373;48.110;11.522;2023-05-07T12:47:18;26.00;48.40
16521;DHT22;8373;48.110;11.522;2023-05-07T12:49:46;25.80;47.80
16521;DHT22;8373;48.110;11.522;2023-05-07T12:52:14;25.60;48.20
16521;DHT22;8373;48.110;11.522;2023-05-07T12:54:42;25.50;48.30
16521;DHT22;8373;48.110;11.522;2023-05-07T12:57:13;25.40;48.50
16521;DHT22;8373;48.110;11.522;2023-05-07T12:59:42;25.40;48.50
16521;DHT22;8373;48.110;11.522;2023-05-07T13:02:10;25.40;48.80
16521;DHT22;8373;48.110;11.522;2023-05-07T13:04:38;25.50;49.10
16521;DHT22;8373;48.110;11.522;2023-05-07T13:07:06;25.60;48.40
16521;DHT22;8373;48.110;11.522;2023-05-07T13:09:34;25.60;48.30
16521;DHT22;8373;48.110;11.522;2023-05-07T13:12:03;25.60;47.70
16521;DHT22;8373;48.110;11.522;2023-05-07T13:14:34;25.60;48.20
16521;DHT22;8373;48.110;11.522;2023-05-07T13:17:02;25.60;47.70
16521;DHT22;8373;48.110;11.522;2023-05-07T13:19:30;25.50;47.50
16521;DHT22;8373;48.110;11.522;2023-05-07T13:21:57;25.50;47.70
16521;DHT22;8373;48.110;11.522;2023-05-07T13:24:25;25.50;48.10
16521;DHT22;8373;48.110;11.522;2023-05-07T13:26:52;25.50;47.50
16521;DHT22;8373;48.110;11.522;2023-05-07T13:29:19;25.50;47.80
16521;DHT22;8373;48.110;11.522;2023-05-07T13:31:52;25.60;47.40
16521;DHT22;8373;48.110;11.522;2023-05-07T13:34:19;25.60;47.20
16521;DHT22;8373;48.110;11.522;2023-05-07T13:36:47;25.50;46.70
16521;DHT22;8373;48.110;11.522;2023-05-07T13:39:14;25.50;46.30
16521;DHT22;8373;48.110;11.522;2023-05-07T13:41:42;25.50;46.60
16521;DHT22;8373;48.110;11.522;2023-05-07T13:44:09;25.50;46.50
16521;DHT22;8373;48.110;11.522;2023-05-07T13:46:37;25.50;46.50
16521;DHT22;8373;48.110;11.522;2023-05-07T13:49:05;25.60;46.00
16521;DHT22;8373;48.110;11.522;2023-05-07T13:51:33;25.50;45.90
16521;DHT22;8373;48.110;11.522;2023-05-07T13:54:00;25.40;45.80
16521;DHT22;8373;48.110;11.522;2023-05-07T13:56:28;25.50;46.30
16521;DHT22;8373;48.110;11.522;2023-05-07T13:58:57;25.60;44.80
16521;DHT22;8373;48.110;11.522;2023-05-07T14:01:25;25.60;45.30
16521;DHT22;8373;48.110;11.522;2023-05-07T14:03:53;25.70;45.50
16521;DHT22;8373;48.110;11.522;2023-05-07T14:06:21;25.60;44.90
16521;DHT22;8373;48.110;11.522;2023-05-07T14:08:49;25.60;44.90
16521;DHT22;8373;48.110;11.522;2023-05-07T14:11:16;25.60;45.10
16521;DHT22;8373;48.110;11.522;2023-05-07T14:13:44;25.60;44.40
16521;DHT22;8373;48.110;11.522;2023-05-07T14:16:11;25.50;44.70
16521;DHT22;8373;48.110;11.522;2023-05-07T14:18:39;25.50;44.80
16521;DHT22;8373;48.110;11.522;2023-05-07T14:21:07;25.40;44.40
16521;DHT22;8373;48.110;11.522;2023-05-07T14:23:36;25.20;44.70
16521;DHT22;8373;48.110;11.522;2023-05-07T14:26:04;25.00;44.90
16521;DHT22;8373;48.110;11.522;2023-05-07T14:28:32;24.90;45.40
16521;DHT22;8373;48.110;11.522;2023-05-07T14:31:00;24.70;46.10
16521;DHT22;8373;48.110;11.522;2023-05-07T14:33:27;24.60;46.70
16521;DHT22;8373;48.110;11.522;2023-05-07T14:35:55;24.50;46.70
16521;DHT22;8373;48.110;11.522;2023-05-07T14:38:22;24.50;47.30
16521;DHT22;8373;48.110;11.522;2023-05-07T14:40:51;24.50;47.90
16521;DHT22;8373;48.110;11.522;2023-05-07T14:43:21;24.40;47.70
16521;DHT22;8373;48.110;11.522;2023-05-07T14:45:49;24.40;47.90
16521;DHT22;8373;48.110;11.522;2023-05-07T14:48:16;24.40;47.10
16521;DHT22;8373;48.110;11.522;2023-05-07T14:50:43;24.30;47.30
16521;DHT22;8373;48.110;11.522;2023-05-07T14:53:13;24.20;47.90
16521;DHT22;8373;48.110;11.522;2023-05-07T14:55:40;24.20;48.50
16521;DHT22;8373;48.110;11.522;2023-05-07T14:58:10;24.10;48.60
16521;DHT22;8373;48.110;11.522;2023-05-07T15:00:38;24.00;49.00
16521;DHT22;8373;48.110;11.522;2023-05-07T15:03:07;23.90;49.50
16521;DHT22;8373;48.110;11.522;2023-05-07T15:05:35;23.80;49.90
16521;DHT22;8373;48.110;11.522;2023-05-07T15:08:03;23.80;50.40
16521;DHT22;8373;48.110;11.522;2023-05-07T15:10:30;23.70;50.60
16521;DHT22;8373;48.110;11.522;2023-05-07T15:13:00;23.70;50.70
16521;DHT22;8373;48.110;11.522;2023-05-07T15:15:29;23.70;50.90
16521;DHT22;8373;48.110;11.522;2023-05-07T15:17:56;23.60;51.10
16521;DHT22;8373;48.110;11.522;2023-05-07T15:20:25;23.60;51.10
16521;DHT22;8373;48.110;11.522;2023-05-07T15:22:52;23.60;51.50
16521;DHT22;8373;48.110;11.522;2023-05-07T15:25:20;23.50;51.40
16521;DHT22;8373;48.110;11.522;2023-05-07T15:27:47;23.50;51.90
16521;DHT22;8373;48.110;11.522;2023-05-07T15:30:14;23.50;51.90
16521;DHT22;8373;48.110;11.522;2023-05-07T15:32:43;23.40;51.70
16521;DHT22;8373;48.110;11.522;2023-05-07T15:35:10;23.40;51.70
16521;DHT22;8373;48.110;11.522;2023-05-07T15:37:37;23.30;52.00
16521;DHT22;8373;48.110;11.522;2023-05-07T15:40:06;23.20;52.00
16521;DHT22;8373;48.110;11.522;2023-05-07T15:42:33;23.20;52.00
16521;DHT22;8373;48.110;11.522;2023-05-07T15:45:00;23.10;52.20
16521;DHT22;8373;48.110;11.522;2023-05-07T15:47:27;23.10;52.40